Tallahassee, Florida
Current Conditions -  °F | °C
As of 12:53 PM on Thursday 27 Nov 2014 (Local Time) from KTLH Reporting Station
Clear Clear  
Wind Chill: 61°   Ceiling: Unl
Heat Index: 61°   Visibility: 10mi
Dew Point: 30°   Wind: 14mph
Humidity: 31%   Direction: 320°NW
Pressure: 30.28"   Gusts: NA
Location:  30.44°N, 84.28°W
Report Text: KTLH 271753Z 32012KT 10SM CLR 16/M01 A3028 RMK AO2 SLP252 T01611011 10161 20033 58017 $
Loading
Personal Weather Stations






























Interactive Weather Map New forecast layout! Learn more

10-Day Weather Forecast

Advertisements
Track Severe Weather on mobile